Time;durP1;ratioP1;P1;durP2;ratioP2;P2;SDS_P1;SDS_P2;PMS_P1;PMS_P2;Temp;Humidity;BMP_temperature;BMP_pressure;BME280_temperature;BME280_humidity;BME280_pressure;Samples;Min_cycle;Max_cycle;Signal;HPM_P1;HPM_P2
2023/01/20 00:00:24;;;;;;;7.35;5.00;;;1.60;99.90;;;;;;5095029;28;20047;-68
2023/01/20 00:02:50;;;;;;;9.00;4.93;;;1.60;99.90;;;;;;5093648;28;20047;-69
2023/01/20 00:05:15;;;;;;;6.32;4.25;;;1.60;99.90;;;;;;5093944;28;20052;-68
2023/01/20 00:07:41;;;;;;;6.88;5.10;;;1.60;99.90;;;;;;5092973;28;20040;-68
2023/01/20 00:10:08;;;;;;;7.57;4.15;;;1.50;99.90;;;;;;5093647;28;20083;-69
2023/01/20 00:12:33;;;;;;;6.00;4.72;;;1.50;99.90;;;;;;5094631;28;20047;-69
2023/01/20 00:14:59;;;;;;;9.98;5.47;;;1.60;99.90;;;;;;5093963;28;20044;-68
2023/01/20 00:17:24;;;;;;;9.18;4.95;;;1.60;99.90;;;;;;5094407;28;20070;-68
2023/01/20 00:19:50;;;;;;;8.82;5.60;;;1.70;99.90;;;;;;5093367;28;20059;-68
2023/01/20 00:22:15;;;;;;;9.43;5.20;;;1.60;99.90;;;;;;5093237;28;20059;-69
2023/01/20 00:24:41;;;;;;;10.77;4.57;;;1.70;99.90;;;;;;5093801;28;20044;-68
2023/01/20 00:27:07;;;;;;;8.50;4.55;;;1.70;99.90;;;;;;5094295;28;20051;-69
2023/01/20 00:29:32;;;;;;;8.27;5.00;;;1.70;99.90;;;;;;5093081;28;20123;-69
2023/01/20 00:31:58;;;;;;;8.63;4.72;;;1.80;99.90;;;;;;5094492;28;20032;-68
2023/01/20 00:34:23;;;;;;;7.57;4.75;;;1.80;99.90;;;;;;5092224;28;20040;-69
2023/01/20 00:36:49;;;;;;;5.82;4.20;;;1.80;99.90;;;;;;5092859;28;20445;-69
2023/01/20 00:39:15;;;;;;;8.00;5.20;;;1.80;99.90;;;;;;5094203;28;20036;-68
2023/01/20 00:41:40;;;;;;;6.50;5.03;;;1.80;99.90;;;;;;5092141;28;20105;-69
2023/01/20 00:44:06;;;;;;;6.57;5.15;;;1.80;99.90;;;;;;5090167;28;20115;-68
2023/01/20 00:46:31;;;;;;;6.50;5.00;;;1.80;99.90;;;;;;5093920;28;20101;-68
2023/01/20 00:48:57;;;;;;;10.27;5.25;;;1.90;99.90;;;;;;5093793;28;20093;-68
2023/01/20 00:51:23;;;;;;;7.63;5.72;;;1.90;99.90;;;;;;5092453;28;20101;-68
2023/01/20 00:53:48;;;;;;;7.00;5.10;;;1.90;99.90;;;;;;5093019;28;20047;-68
2023/01/20 00:56:14;;;;;;;11.25;5.38;;;1.90;99.90;;;;;;5092459;28;20477;-68
2023/01/20 00:58:43;;;;;;;11.55;5.10;;;2.00;99.90;;;;;;5093656;28;20093;-68
2023/01/20 01:01:09;;;;;;;9.02;5.60;;;2.00;99.90;;;;;;5093549;28;20119;-68
2023/01/20 01:03:34;;;;;;;11.85;6.20;;;2.00;99.90;;;;;;5093119;28;20067;-69
2023/01/20 01:06:08;;;;;;;8.60;5.68;;;2.00;99.90;;;;;;5092951;28;20036;-68
2023/01/20 01:08:34;;;;;;;10.98;6.88;;;1.90;99.90;;;;;;5093788;28;20111;-68
2023/01/20 01:10:59;;;;;;;9.25;6.35;;;2.00;99.90;;;;;;5093320;28;20883;-68
2023/01/20 01:13:25;;;;;;;10.70;6.43;;;2.00;99.90;;;;;;5093191;28;20142;-68
2023/01/20 01:15:51;;;;;;;10.73;6.95;;;2.00;99.90;;;;;;5092501;28;20036;-68
2023/01/20 01:18:17;;;;;;;13.40;6.97;;;2.00;99.90;;;;;;5093323;28;20043;-68
2023/01/20 01:20:43;;;;;;;9.73;6.35;;;2.00;99.90;;;;;;5093150;28;20040;-68
2023/01/20 01:23:09;;;;;;;10.18;6.60;;;2.00;99.90;;;;;;5092013;28;20044;-68
2023/01/20 01:25:36;;;;;;;13.85;6.72;;;2.10;99.90;;;;;;5092548;28;20051;-68
2023/01/20 01:28:02;;;;;;;11.13;6.38;;;2.10;99.90;;;;;;5093219;28;20032;-68
2023/01/20 01:30:28;;;;;;;14.02;7.00;;;2.10;99.90;;;;;;5093436;28;20125;-68
2023/01/20 01:32:53;;;;;;;12.73;7.40;;;2.10;99.90;;;;;;5091608;28;20040;-69
2023/01/20 01:35:19;;;;;;;11.68;6.78;;;2.20;99.90;;;;;;5092463;28;20048;-68
2023/01/20 01:37:44;;;;;;;12.70;7.25;;;2.10;99.90;;;;;;5093159;28;20039;-68
2023/01/20 01:40:10;;;;;;;11.40;6.97;;;2.20;99.90;;;;;;5091736;28;20073;-68
2023/01/20 01:42:36;;;;;;;11.55;7.07;;;2.10;99.90;;;;;;5092823;28;20469;-68
2023/01/20 01:45:11;;;;;;;10.65;6.65;;;2.10;99.90;;;;;;5092061;28;20123;-68
2023/01/20 01:47:44;;;;;;;11.98;6.68;;;1.90;99.90;;;;;;5091334;28;20585;-68
2023/01/20 01:50:18;;;;;;;10.98;7.18;;;1.90;99.90;;;;;;5092987;28;20051;-68
2023/01/20 01:52:46;;;;;;;10.52;6.82;;;2.00;99.90;;;;;;5092508;28;20042;-68
2023/01/20 01:55:13;;;;;;;9.00;6.65;;;2.00;99.90;;;;;;5091877;28;20040;-68
2023/01/20 01:57:39;;;;;;;10.90;6.88;;;2.00;99.90;;;;;;5091147;28;20042;-68
2023/01/20 02:00:06;;;;;;;8.82;6.22;;;2.00;99.90;;;;;;5092426;28;20044;-69
2023/01/20 02:02:32;;;;;;;11.50;7.05;;;2.00;99.90;;;;;;5092499;28;20070;-69
2023/01/20 02:04:58;;;;;;;15.27;7.22;;;2.00;99.90;;;;;;5091701;28;20043;-68
2023/01/20 02:07:23;;;;;;;9.98;6.30;;;2.00;99.90;;;;;;5092506;28;20492;-68
2023/01/20 02:09:49;;;;;;;12.35;6.43;;;2.00;99.90;;;;;;5092280;28;20044;-69
2023/01/20 02:12:18;;;;;;;10.50;6.95;;;2.00;99.90;;;;;;5092415;28;20141;-68
2023/01/20 02:14:54;;;;;;;10.85;6.80;;;2.00;99.90;;;;;;5091585;28;20036;-68
2023/01/20 02:17:39;;;;;;;12.63;7.50;;;1.90;99.90;;;;;;5091623;28;20047;-69
2023/01/20 02:20:30;;;;;;;11.35;6.93;;;1.90;99.90;;;;;;5090677;28;20119;-68
2023/01/20 02:23:11;;;;;;;11.70;7.35;;;2.00;99.90;;;;;;5090758;28;20086;-68
2023/01/20 02:25:43;;;;;;;12.23;6.78;;;1.90;99.90;;;;;;5091370;28;20151;-68
2023/01/20 02:28:24;;;;;;;13.27;7.55;;;1.90;99.90;;;;;;5092198;28;20036;-68
2023/01/20 02:31:11;;;;;;;11.32;6.15;;;1.90;99.90;;;;;;5091978;28;20469;-68
2023/01/20 02:33:55;;;;;;;11.40;7.80;;;1.90;99.90;;;;;;5092226;28;20047;-68
2023/01/20 02:36:29;;;;;;;11.88;7.35;;;1.90;99.90;;;;;;5091925;28;20044;-68
2023/01/20 02:39:01;;;;;;;13.68;7.47;;;1.90;99.90;;;;;;5091882;28;20040;-68
2023/01/20 02:41:48;;;;;;;10.68;7.13;;;1.90;99.90;;;;;;5090295;28;20089;-68
2023/01/20 02:44:21;;;;;;;13.73;7.75;;;1.90;99.90;;;;;;5091208;28;20111;-68
2023/01/20 02:46:46;;;;;;;;;;;1.90;99.90;;;;;;5090699;28;20511;-68
2023/01/20 02:49:12;;;;;;;10.32;7.07;;;1.90;99.90;;;;;;5091894;28;19916;-68
2023/01/20 02:51:56;;;;;;;10.80;7.22;;;1.90;99.90;;;;;;5091730;28;20512;-68
2023/01/20 02:54:25;;;;;;;12.25;7.70;;;2.00;99.90;;;;;;5090650;28;20044;-68
2023/01/20 02:56:52;;;;;;;14.48;8.05;;;2.00;99.90;;;;;;5091434;28;20404;-68
2023/01/20 02:59:24;;;;;;;12.35;8.32;;;1.90;99.90;;;;;;5091572;28;20036;-68
2023/01/20 03:01:54;;;;;;;15.38;9.60;;;2.00;99.90;;;;;;5091411;28;20078;-68
2023/01/20 03:04:26;;;;;;;15.70;9.00;;;1.90;99.90;;;;;;5090655;28;20051;-68
2023/01/20 03:06:55;;;;;;;13.80;7.80;;;2.00;99.90;;;;;;5091347;28;20539;-68
2023/01/20 03:09:26;;;;;;;13.43;9.02;;;1.90;99.90;;;;;;5091328;28;20527;-68
2023/01/20 03:11:57;;;;;;;13.38;8.07;;;1.80;99.90;;;;;;5091403;28;20040;-68
2023/01/20 03:14:23;;;;;;;14.25;8.10;;;1.90;99.90;;;;;;5090790;28;20051;-68
2023/01/20 03:16:49;;;;;;;13.45;7.82;;;1.90;99.90;;;;;;5091492;28;20028;-68
2023/01/20 03:19:17;;;;;;;12.88;7.85;;;1.90;99.90;;;;;;5091064;28;20036;-68
2023/01/20 03:21:43;;;;;;;13.43;7.93;;;2.00;99.90;;;;;;5091527;28;20044;-67
2023/01/20 03:24:10;;;;;;;17.35;8.70;;;2.00;99.90;;;;;;5090595;28;20131;-67
2023/01/20 03:26:36;;;;;;;12.55;8.63;;;2.00;99.90;;;;;;5091019;28;20036;-67
2023/01/20 03:29:05;;;;;;;12.93;8.52;;;2.00;99.90;;;;;;5090961;28;20044;-67
2023/01/20 03:31:35;;;;;;;12.02;8.02;;;1.90;99.90;;;;;;5089540;28;20051;-68
2023/01/20 03:34:09;;;;;;;12.35;7.40;;;2.00;99.90;;;;;;5090327;28;20887;-68
2023/01/20 03:36:36;;;;;;;14.75;7.65;;;1.90;99.90;;;;;;5091321;28;20040;-68
2023/01/20 03:39:02;;;;;;;13.60;7.88;;;1.90;99.90;;;;;;5090856;28;20082;-68
2023/01/20 03:42:00;;;;;;;12.75;7.65;;;1.90;99.90;;;;;;5091026;28;20036;-68
2023/01/20 03:44:36;;;;;;;12.02;7.28;;;1.90;99.90;;;;;;5090312;28;20051;-68
2023/01/20 03:47:08;;;;;;;12.90;7.57;;;1.80;99.90;;;;;;5091104;28;20407;-68
2023/01/20 03:49:52;;;;;;;12.45;8.00;;;1.90;99.90;;;;;;5089455;28;20044;-68
2023/01/20 03:52:31;;;;;;;12.98;7.65;;;1.90;99.90;;;;;;5090764;28;20044;-68
2023/01/20 03:55:06;;;;;;;11.93;7.43;;;1.90;99.90;;;;;;5090107;28;20075;-68
2023/01/20 03:57:40;;;;;;;14.10;8.05;;;1.80;99.90;;;;;;5090774;28;20043;-68
2023/01/20 04:00:08;;;;;;;12.98;8.20;;;1.90;99.90;;;;;;5090754;28;20404;-68
2023/01/20 04:02:34;;;;;;;15.52;7.82;;;1.90;99.90;;;;;;5090652;28;20099;-68
2023/01/20 04:05:02;;;;;;;13.27;7.90;;;1.90;99.90;;;;;;5089746;28;20571;-68
2023/01/20 04:07:30;;;;;;;14.52;7.95;;;1.80;99.90;;;;;;5090632;28;20055;-68
2023/01/20 04:10:02;;;;;;;11.18;7.18;;;1.90;99.90;;;;;;5091019;28;20047;-68
2023/01/20 04:12:28;;;;;;;14.83;8.40;;;1.80;99.90;;;;;;5090863;28;20418;-68
2023/01/20 04:14:54;;;;;;;13.90;8.10;;;1.90;99.90;;;;;;5089833;28;20036;-68
2023/01/20 04:17:19;;;;;;;12.52;7.50;;;1.90;99.90;;;;;;5090686;28;20036;-68
2023/01/20 04:19:45;;;;;;;13.77;7.90;;;1.90;99.90;;;;;;5090866;28;20043;-68
2023/01/20 04:22:30;;;;;;;12.40;7.28;;;1.90;99.90;;;;;;5089453;28;20059;-68
2023/01/20 04:25:12;;;;;;;13.02;7.50;;;1.80;99.90;;;;;;5089976;28;20416;-68
2023/01/20 04:27:38;;;;;;;13.32;7.70;;;1.90;99.90;;;;;;5090513;28;20404;-69
2023/01/20 04:30:04;;;;;;;12.52;6.78;;;2.00;99.90;;;;;;5090740;28;20043;-68
2023/01/20 04:32:29;;;;;;;13.07;7.55;;;1.80;99.90;;;;;;5090191;28;20066;-68
2023/01/20 04:34:55;;;;;;;13.32;7.47;;;1.80;99.90;;;;;;5089821;28;20040;-68
2023/01/20 04:37:20;;;;;;;13.32;7.45;;;1.80;99.90;;;;;;5090627;28;20040;-68
2023/01/20 04:39:46;;;;;;;12.40;7.10;;;1.90;99.90;;;;;;5090947;28;20071;-68
2023/01/20 04:42:11;;;;;;;12.15;7.43;;;1.80;99.90;;;;;;5091900;28;20393;-68
2023/01/20 04:44:37;;;;;;;15.95;8.15;;;1.90;99.90;;;;;;5092987;28;20490;-68
2023/01/20 04:47:03;;;;;;;13.93;7.15;;;1.80;99.90;;;;;;5094037;28;20032;-68
2023/01/20 04:49:28;;;;;;;15.65;8.45;;;1.90;99.90;;;;;;5092671;28;20261;-68
2023/01/20 04:51:54;;;;;;;13.23;7.55;;;1.90;99.90;;;;;;5093807;28;20400;-68
2023/01/20 04:54:20;;;;;;;16.58;9.10;;;1.90;99.90;;;;;;5093284;28;20051;-68
2023/01/20 04:56:49;;;;;;;14.95;8.00;;;1.90;99.90;;;;;;5093987;28;20633;-68
2023/01/20 04:59:14;;;;;;;15.13;7.70;;;1.80;99.90;;;;;;5093898;28;20105;-68
2023/01/20 05:01:40;;;;;;;16.45;9.20;;;1.80;99.90;;;;;;5093902;28;20043;-68
2023/01/20 05:04:06;;;;;;;17.58;9.40;;;1.90;99.90;;;;;;5092880;28;20085;-69
2023/01/20 05:06:31;;;;;;;14.77;8.18;;;1.90;99.90;;;;;;5093547;28;20036;-68
2023/01/20 05:08:57;;;;;;;19.08;9.88;;;1.90;99.90;;;;;;5093784;28;20175;-68
2023/01/20 05:11:22;;;;;;;16.38;8.77;;;1.90;99.90;;;;;;5093729;28;20424;-68
2023/01/20 05:13:48;;;;;;;17.17;9.50;;;1.90;99.90;;;;;;5092552;28;20076;-68
2023/01/20 05:16:13;;;;;;;18.15;10.55;;;1.90;99.90;;;;;;5093445;28;20040;-68
2023/01/20 05:18:39;;;;;;;17.65;9.63;;;1.80;99.90;;;;;;5093603;28;20067;-68
2023/01/20 05:21:07;;;;;;;20.05;10.18;;;1.90;99.90;;;;;;5093369;28;20036;-68
2023/01/20 05:23:33;;;;;;;19.77;10.18;;;1.90;99.90;;;;;;5093280;28;20040;-68
2023/01/20 05:25:58;;;;;;;20.65;10.35;;;1.90;99.90;;;;;;5092581;28;20035;-68
2023/01/20 05:28:24;;;;;;;20.77;10.32;;;1.90;99.90;;;;;;5091807;28;20040;-68
2023/01/20 05:30:50;;;;;;;20.50;10.27;;;1.80;99.90;;;;;;5091615;28;20044;-68
2023/01/20 05:33:16;;;;;;;21.75;9.93;;;1.80;99.90;;;;;;5093080;28;20040;-68
2023/01/20 05:35:41;;;;;;;23.58;10.40;;;1.80;99.90;;;;;;5090883;28;20040;-67
2023/01/20 05:38:07;;;;;;;20.45;10.63;;;1.70;99.90;;;;;;5093056;28;20180;-68
2023/01/20 05:40:32;;;;;;;24.58;11.10;;;1.60;99.90;;;;;;5092865;28;20050;-68
2023/01/20 05:42:59;;;;;;;22.27;11.60;;;1.60;99.90;;;;;;5093194;28;20036;-68
2023/01/20 05:45:25;;;;;;;21.33;10.45;;;1.60;99.90;;;;;;5092323;28;20040;-68
2023/01/20 05:47:59;;;;;;;20.23;11.50;;;1.70;99.90;;;;;;5092873;28;20043;-68
2023/01/20 05:50:26;;;;;;;21.08;10.98;;;1.70;99.90;;;;;;5091551;28;20047;-68
2023/01/20 05:52:52;;;;;;;26.05;12.02;;;1.60;99.90;;;;;;5091273;28;20048;-68
2023/01/20 05:55:18;;;;;;;25.10;12.57;;;1.80;99.90;;;;;;5091782;28;20096;-67
2023/01/20 05:57:44;;;;;;;25.38;11.88;;;1.70;99.90;;;;;;5091212;28;20119;-68
2023/01/20 06:00:11;;;;;;;24.00;11.25;;;1.60;99.90;;;;;;5092692;28;20069;-68
2023/01/20 06:02:37;;;;;;;24.80;11.75;;;1.60;99.90;;;;;;5092620;28;20044;-68
2023/01/20 06:05:03;;;;;;;24.65;11.20;;;1.60;99.90;;;;;;5091724;28;20043;-69
2023/01/20 06:07:29;;;;;;;28.92;12.13;;;1.50;99.90;;;;;;5091080;28;20052;-68
2023/01/20 06:09:56;;;;;;;23.60;12.15;;;1.50;99.90;;;;;;5091020;28;20124;-68
2023/01/20 06:12:21;;;;;;;26.83;13.75;;;1.50;99.90;;;;;;5090844;28;20040;-68
2023/01/20 06:14:47;;;;;;;24.30;12.23;;;1.50;99.90;;;;;;5091492;28;20389;-68
2023/01/20 06:17:13;;;;;;;25.15;12.88;;;1.60;99.90;;;;;;5092375;28;20396;-68
2023/01/20 06:19:39;;;;;;;27.83;13.57;;;1.60;99.90;;;;;;5092046;28;20131;-68
2023/01/20 06:22:06;;;;;;;29.38;12.85;;;1.50;99.90;;;;;;5092118;28;20036;-68
2023/01/20 06:24:32;;;;;;;28.90;13.45;;;1.60;99.90;;;;;;5091460;28;20135;-68
2023/01/20 06:26:57;;;;;;;29.38;13.82;;;1.60;99.90;;;;;;5092123;28;20128;-68
2023/01/20 06:29:23;;;;;;;27.88;13.60;;;1.60;99.90;;;;;;5091783;28;20040;-68
2023/01/20 06:31:48;;;;;;;27.65;13.60;;;1.60;99.90;;;;;;5090714;28;20035;-68
2023/01/20 06:34:14;;;;;;;30.50;13.75;;;1.60;99.90;;;;;;5091085;28;20080;-68
2023/01/20 06:36:40;;;;;;;30.60;14.55;;;1.70;99.90;;;;;;5091877;28;20032;-68
2023/01/20 06:39:05;;;;;;;31.45;14.65;;;1.60;99.90;;;;;;5091695;28;20036;-68
2023/01/20 06:41:31;;;;;;;34.05;13.40;;;1.60;99.90;;;;;;5091987;28;20545;-68
2023/01/20 06:43:57;;;;;;;32.90;15.05;;;1.60;99.90;;;;;;5091039;28;20055;-68
2023/01/20 06:46:22;;;;;;;30.95;15.20;;;1.60;99.90;;;;;;5091889;28;20476;-68
2023/01/20 06:48:48;;;;;;;27.25;14.07;;;1.60;99.90;;;;;;5092035;28;20043;-69
2023/01/20 06:51:18;;;;;;;27.95;14.82;;;1.70;99.90;;;;;;5091540;28;20036;-68
2023/01/20 06:53:44;;;;;;;34.13;14.68;;;1.60;99.90;;;;;;5090976;28;20496;-68
2023/01/20 06:56:12;;;;;;;30.17;14.77;;;1.70;99.90;;;;;;5091502;28;20089;-68
2023/01/20 06:58:38;;;;;;;39.25;14.95;;;1.60;99.90;;;;;;5091664;28;20434;-68
2023/01/20 07:01:17;;;;;;;30.30;14.10;;;1.70;99.90;;;;;;5091626;28;20211;-69
2023/01/20 07:03:43;;;;;;;32.35;13.98;;;1.80;99.90;;;;;;5089385;28;20040;-69
2023/01/20 07:06:24;;;;;;;32.53;14.60;;;1.80;99.90;;;;;;5090795;28;20063;-69
2023/01/20 07:08:50;;;;;;;30.70;14.95;;;1.80;99.90;;;;;;5091636;28;20040;-69
2023/01/20 07:11:15;;;;;;;33.08;16.25;;;1.80;99.90;;;;;;5091214;28;20036;-68
2023/01/20 07:13:41;;;;;;;35.22;16.10;;;1.70;99.90;;;;;;5089596;28;20415;-69
2023/01/20 07:16:07;;;;;;;37.10;15.27;;;1.70;99.90;;;;;;5090787;28;20519;-69
2023/01/20 07:18:33;;;;;;;37.08;16.13;;;1.70;99.90;;;;;;5089786;28;20093;-69
2023/01/20 07:20:59;;;;;;;33.42;14.73;;;1.70;99.90;;;;;;5091375;28;20599;-68
2023/01/20 07:23:25;;;;;;;36.28;15.77;;;1.70;99.90;;;;;;5091178;28;20422;-69
2023/01/20 07:26:05;;;;;;;33.65;14.82;;;1.70;99.90;;;;;;5090444;28;20047;-68
2023/01/20 07:28:32;;;;;;;35.13;15.07;;;1.70;99.90;;;;;;5091032;28;20148;-68
2023/01/20 07:31:11;;;;;;;32.83;15.40;;;1.70;99.90;;;;;;5091049;28;20042;-67
2023/01/20 07:33:37;;;;;;;30.40;13.90;;;1.70;99.90;;;;;;5089514;28;20484;-68
2023/01/20 07:36:03;;;;;;;37.35;15.35;;;1.70;99.90;;;;;;5089111;28;20043;-68
2023/01/20 07:38:29;;;;;;;35.40;14.63;;;1.70;99.90;;;;;;5091087;28;20081;-68
2023/01/20 07:40:59;;;;;;;33.85;14.93;;;1.70;99.90;;;;;;5086468;28;20522;-69
2023/01/20 07:43:25;;;;;;;44.25;16.02;;;1.70;99.90;;;;;;5080666;28;20036;-69
2023/01/20 07:45:55;;;;;;;35.42;14.52;;;1.70;99.90;;;;;;5071718;28;20037;-68
2023/01/20 07:48:21;;;;;;;36.22;15.05;;;1.60;99.90;;;;;;5068972;28;20029;-68
2023/01/20 07:50:47;;;;;;;36.90;15.70;;;1.60;99.90;;;;;;5043232;28;20102;-68
2023/01/20 07:53:12;;;;;;;34.22;16.08;;;1.60;99.90;;;;;;5060428;28;20037;-68
2023/01/20 07:55:38;;;;;;;35.15;16.83;;;1.50;99.90;;;;;;5063459;28;20124;-68
2023/01/20 07:58:03;;;;;;;34.58;14.20;;;1.60;99.90;;;;;;5070477;28;20044;-68
2023/01/20 08:00:29;;;;;;;38.65;15.75;;;1.50;99.90;;;;;;5068899;28;20037;-68
2023/01/20 08:02:54;;;;;;;34.22;14.93;;;1.50;99.90;;;;;;5066178;28;20101;-68
2023/01/20 08:05:21;;;;;;;46.13;17.75;;;1.60;99.90;;;;;;5065520;28;20082;-69
2023/01/20 08:07:50;;;;;;;36.97;14.73;;;1.60;99.90;;;;;;5068809;28;20049;-68
2023/01/20 08:10:16;;;;;;;34.92;14.40;;;1.70;99.90;;;;;;5068625;28;20539;-68
2023/01/20 08:12:42;;;;;;;37.40;16.38;;;1.70;99.90;;;;;;5069344;28;20116;-69
2023/01/20 08:15:08;;;;;;;41.83;18.00;;;1.70;99.90;;;;;;5075214;28;20033;-69
2023/01/20 08:17:34;;;;;;;37.97;16.52;;;1.70;99.90;;;;;;5084555;28;20119;-69
2023/01/20 08:19:59;;;;;;;42.55;15.90;;;1.60;99.90;;;;;;5083906;28;20107;-68
2023/01/20 08:22:25;;;;;;;38.00;15.02;;;1.60;99.90;;;;;;5083803;28;20066;-69
2023/01/20 08:24:50;;;;;;;43.15;17.77;;;1.60;99.90;;;;;;5082608;28;20116;-68
2023/01/20 08:27:16;;;;;;;39.95;16.02;;;1.70;99.90;;;;;;5082604;28;20036;-69
2023/01/20 08:29:41;;;;;;;38.55;15.73;;;1.70;99.90;;;;;;5084820;28;20089;-69
2023/01/20 08:32:07;;;;;;;38.90;15.88;;;1.70;99.90;;;;;;5082521;28;20493;-68
2023/01/20 08:34:33;;;;;;;34.40;14.40;;;1.70;99.90;;;;;;5083215;28;20036;-68
2023/01/20 08:36:59;;;;;;;38.58;16.38;;;1.70;99.90;;;;;;5084167;28;20036;-68
2023/01/20 08:39:24;;;;;;;37.28;16.33;;;1.70;99.90;;;;;;5081146;28;20036;-69
2023/01/20 08:41:50;;;;;;;39.28;16.02;;;1.70;99.90;;;;;;5083832;28;20487;-68
2023/01/20 08:44:17;;;;;;;37.33;15.55;;;1.70;99.90;;;;;;5093561;28;20125;-69
2023/01/20 08:46:43;;;;;;;38.67;17.30;;;1.70;99.90;;;;;;5094124;28;20522;-69
2023/01/20 08:49:12;;;;;;;38.45;18.35;;;1.80;99.90;;;;;;5090869;28;20127;-69
2023/01/20 08:51:38;;;;;;;37.15;17.13;;;1.80;99.90;;;;;;5083348;28;20110;-68
2023/01/20 08:54:04;;;;;;;42.25;17.70;;;1.80;99.90;;;;;;5084592;28;20071;-68
2023/01/20 08:56:30;;;;;;;38.95;16.20;;;1.70;99.90;;;;;;5093536;28;20117;-68
2023/01/20 08:58:59;;;;;;;39.95;15.77;;;1.70;99.90;;;;;;5093878;28;20036;-68
2023/01/20 09:01:27;;;;;;;41.13;16.70;;;1.70;99.90;;;;;;5093834;28;20046;-68
2023/01/20 09:03:54;;;;;;;36.17;15.48;;;1.70;99.90;;;;;;5090165;28;20497;-69
2023/01/20 09:06:21;;;;;;;39.78;16.20;;;1.60;99.90;;;;;;5092941;28;20115;-69
2023/01/20 09:08:47;;;;;;;40.55;17.20;;;1.60;99.90;;;;;;5093226;28;20036;-69
2023/01/20 09:11:15;;;;;;;46.35;16.52;;;1.70;99.90;;;;;;5093537;28;20085;-68
2023/01/20 09:13:41;;;;;;;39.00;15.57;;;1.70;99.90;;;;;;5092244;28;20093;-70
2023/01/20 09:16:09;;;;;;;43.60;17.23;;;1.70;99.90;;;;;;5070522;28;20493;-69
2023/01/20 09:18:35;;;;;;;43.08;17.58;;;1.80;99.90;;;;;;5072381;28;20668;-69
2023/01/20 09:21:05;;;;;;;40.50;17.15;;;1.70;99.90;;;;;;5069837;28;20041;-69
2023/01/20 09:23:32;;;;;;;44.38;17.48;;;1.80;99.90;;;;;;5071006;28;20040;-69
2023/01/20 09:26:01;;;;;;;41.33;17.88;;;1.80;99.90;;;;;;5068677;28;20454;-70
2023/01/20 09:28:27;;;;;;;45.33;17.50;;;1.80;99.90;;;;;;5070211;28;20345;-69
2023/01/20 09:31:00;;;;;;;46.70;18.52;;;1.80;99.90;;;;;;5076088;28;20039;-68
2023/01/20 09:33:26;;;;;;;41.70;16.17;;;1.80;99.90;;;;;;5054198;28;20054;-70
2023/01/20 09:35:56;;;;;;;35.92;15.35;;;1.90;99.90;;;;;;5073003;28;20662;-70
2023/01/20 09:44:39;;;;;;;41.60;17.00;;;1.90;99.90;;;;;;5082959;28;20040;-69
2023/01/20 09:47:20;;;;;;;37.28;15.35;;;1.90;99.90;;;;;;5093084;28;20036;-69
2023/01/20 09:53:14;;;;;;;45.35;16.02;;;1.80;99.90;;;;;;5092967;28;20044;-69
2023/01/20 09:55:57;;;;;;;36.95;15.70;;;1.90;99.90;;;;;;5086890;28;20054;-69
2023/01/20 09:58:28;;;;;;;44.70;16.83;;;1.90;99.90;;;;;;5080968;28;20060;-70
2023/01/20 10:01:17;;;;;;;50.30;16.90;;;1.90;99.90;;;;;;5082127;28;20035;-69
2023/01/20 10:03:51;;;;;;;35.35;16.33;;;1.90;99.90;;;;;;5070745;28;20036;-70
2023/01/20 10:06:39;;;;;;;42.00;17.48;;;1.90;99.90;;;;;;5071921;28;20037;-69
2023/01/20 10:09:12;;;;;;;40.80;16.75;;;1.90;99.90;;;;;;5071961;28;20500;-69
2023/01/20 10:11:42;;;;;;;38.50;16.27;;;1.90;99.90;;;;;;5070986;28;20056;-69
2023/01/20 10:14:23;;;;;;;40.80;15.43;;;1.90;99.90;;;;;;5071334;28;20041;-69
2023/01/20 10:17:14;;;;;;;36.92;14.93;;;1.80;99.90;;;;;;5072207;28;20045;-73
2023/01/20 10:19:42;;;;;;;44.55;17.40;;;1.90;99.90;;;;;;5070771;28;20037;-71
2023/01/20 10:22:29;;;;;;;38.83;16.92;;;2.00;99.90;;;;;;5087805;28;20048;-71
2023/01/20 10:25:00;;;;;;;36.85;16.08;;;1.90;99.90;;;;;;5091282;28;20048;-70
2023/01/20 10:27:28;;;;;;;38.03;16.73;;;1.90;99.90;;;;;;5090907;28;20058;-71
2023/01/20 10:30:06;;;;;;;41.63;15.68;;;1.80;99.90;;;;;;5091896;28;20074;-71
2023/01/20 10:32:35;;;;;;;39.00;15.30;;;1.90;99.90;;;;;;5090519;28;20392;-71
2023/01/20 10:35:25;;;;;;;41.63;15.30;;;1.90;99.90;;;;;;5091285;28;20040;-71
2023/01/20 10:37:52;;;;;;;39.47;16.25;;;1.90;99.90;;;;;;5089802;28;20054;-71
2023/01/20 10:40:50;;;;;;;42.85;15.32;;;1.90;99.90;;;;;;5090666;28;20378;-70
2023/01/20 10:43:17;;;;;;;32.75;14.85;;;1.90;99.90;;;;;;5090298;28;20054;-71
2023/01/20 10:46:30;;;;;;;42.85;16.30;;;2.00;99.90;;;;;;5090905;28;20110;-71
2023/01/20 10:49:01;;;;;;;45.70;16.45;;;2.00;99.90;;;;;;5028798;28;20119;-71
2023/01/20 10:51:35;;;;;;;41.88;15.68;;;1.90;99.90;;;;;;5012341;28;20498;-71
2023/01/20 10:54:34;;;;;;;37.05;14.50;;;1.90;99.90;;;;;;5053499;28;20532;-71
2023/01/20 10:57:04;;;;;;;39.90;14.43;;;1.90;99.90;;;;;;5052870;28;20092;-71
2023/01/20 10:59:35;;;;;;;38.78;14.95;;;1.90;99.90;;;;;;5091518;28;20036;-71
2023/01/20 11:02:13;;;;;;;37.28;15.27;;;1.90;99.90;;;;;;5090173;28;20051;-71
2023/01/20 11:04:39;;;;;;;37.75;14.45;;;1.90;99.90;;;;;;5089233;28;20077;-71
2023/01/20 11:07:17;;;;;;;42.95;15.90;;;1.80;99.90;;;;;;5090175;28;20393;-72
2023/01/20 11:09:45;;;;;;;35.78;14.70;;;1.90;99.90;;;;;;5089838;28;20044;-71
2023/01/20 11:12:17;;;;;;;32.25;13.90;;;1.90;99.90;;;;;;5091259;28;20050;-71
2023/01/20 11:14:44;;;;;;;38.08;15.73;;;2.00;99.90;;;;;;5090362;28;20036;-71
2023/01/20 11:17:17;;;;;;;40.35;15.63;;;2.00;99.90;;;;;;5089797;28;20067;-72
2023/01/20 11:19:47;;;;;;;;;;;2.00;99.90;;;;;;5090499;28;20496;-72
2023/01/20 11:22:21;;;;;;;48.67;15.38;;;1.90;99.90;;;;;;5091347;28;19916;-72
2023/01/20 11:24:51;;;;;;;44.80;14.85;;;2.00;99.90;;;;;;5089239;28;20075;-71
2023/01/20 11:27:20;;;;;;;39.72;15.25;;;2.10;99.90;;;;;;5089886;28;20044;-72
2023/01/20 11:29:51;;;;;;;43.90;16.38;;;2.10;99.90;;;;;;5091150;28;20143;-71
2023/01/20 11:32:32;;;;;;;42.05;15.90;;;2.10;99.90;;;;;;5089611;28;20040;-72
2023/01/20 11:34:58;;;;;;;38.42;15.27;;;2.10;99.90;;;;;;5088764;28;20197;-72
2023/01/20 11:37:33;;;;;;;37.28;14.30;;;2.10;99.90;;;;;;5089755;28;20036;-71
2023/01/20 11:40:15;;;;;;;39.05;14.45;;;2.10;99.90;;;;;;5090076;28;20652;-72
2023/01/20 11:42:43;;;;;;;40.10;16.07;;;2.10;99.90;;;;;;5089953;28;20051;-71
2023/01/20 11:45:33;;;;;;;37.28;15.30;;;2.10;99.90;;;;;;5088643;28;20282;-72
2023/01/20 11:48:04;;;;;;;39.88;15.88;;;2.10;99.90;;;;;;5090314;28;20044;-71
2023/01/20 11:51:07;;;;;;;38.70;14.85;;;2.10;99.90;;;;;;5093910;28;20385;-71
2023/01/20 11:53:33;;;;;;;37.63;15.20;;;2.10;99.90;;;;;;5062575;28;20445;-71
2023/01/20 11:56:18;;;;;;;42.03;15.52;;;2.00;99.90;;;;;;5092780;28;20093;-71
2023/01/20 11:58:57;;;;;;;32.10;15.07;;;2.10;99.90;;;;;;5094891;28;20044;-71
2023/01/20 12:01:28;;;;;;;37.50;14.32;;;2.00;99.90;;;;;;5095021;28;20040;-71
2023/01/20 12:04:26;;;;;;;37.45;14.70;;;2.00;99.90;;;;;;5093979;28;20373;-72
2023/01/20 12:07:05;;;;;;;34.75;15.43;;;2.10;99.90;;;;;;5094571;28;20044;-72
2023/01/20 12:09:37;;;;;;;35.28;15.77;;;2.00;99.90;;;;;;5094844;28;20047;-71
2023/01/20 12:12:35;;;;;;;41.77;14.63;;;2.10;99.90;;;;;;5094820;28;20067;-71
2023/01/20 12:15:17;;;;;;;39.75;15.32;;;2.20;99.90;;;;;;5081899;28;20087;-72
2023/01/20 12:17:57;;;;;;;33.03;15.50;;;2.20;99.90;;;;;;5093583;28;20063;-71
2023/01/20 12:20:51;;;;;;;34.05;14.40;;;2.20;99.90;;;;;;5094548;28;20663;-71
2023/01/20 12:23:46;;;;;;;40.35;15.77;;;2.20;99.90;;;;;;5088581;28;20044;-71
2023/01/20 12:26:17;;;;;;;37.58;15.38;;;2.30;99.90;;;;;;5094605;28;20068;-71
2023/01/20 12:29:08;;;;;;;34.35;15.23;;;2.30;99.90;;;;;;5093002;28;20115;-72
2023/01/20 12:31:34;;;;;;;36.63;14.90;;;2.20;99.90;;;;;;5094295;28;20098;-72
2023/01/20 12:34:09;;;;;;;33.42;13.32;;;2.10;99.90;;;;;;5092141;28;20637;-71
2023/01/20 12:36:56;;;;;;;36.03;14.43;;;2.10;99.90;;;;;;5092843;28;20138;-72
2023/01/20 12:39:24;;;;;;;36.58;15.00;;;2.10;99.90;;;;;;5092764;28;20040;-72
2023/01/20 12:42:08;;;;;;;44.20;15.82;;;2.10;99.90;;;;;;5092767;28;20081;-73
2023/01/20 12:44:46;;;;;;;36.95;14.60;;;2.10;99.90;;;;;;5075009;28;20549;-72
2023/01/20 12:47:45;;;;;;;40.75;15.30;;;2.10;99.90;;;;;;5094108;28;20076;-71
2023/01/20 12:50:29;;;;;;;38.80;15.35;;;2.20;99.90;;;;;;5092891;28;20381;-72
2023/01/20 12:53:25;;;;;;;40.17;16.27;;;2.20;99.90;;;;;;5092584;28;20040;-72
2023/01/20 12:55:59;;;;;;;38.38;15.52;;;2.10;99.90;;;;;;5091796;28;20084;-71
2023/01/20 12:58:51;;;;;;;37.67;15.32;;;2.10;99.90;;;;;;5092813;28;20756;-72
2023/01/20 13:01:29;;;;;;;38.53;15.30;;;2.10;99.90;;;;;;5093206;28;20036;-71
2023/01/20 13:04:27;;;;;;;38.78;14.93;;;2.20;99.90;;;;;;5091642;28;20508;-72
2023/01/20 13:07:04;;;;;;;33.95;14.55;;;2.10;99.90;;;;;;5092320;28;20090;-71
2023/01/20 13:09:35;;;;;;;42.08;14.27;;;2.20;99.90;;;;;;5093615;28;20043;-71